Time;durP1;ratioP1;P1;durP2;ratioP2;P2;SDS_P1;SDS_P2;PMS_P1;PMS_P2;Temp;Humidity;BMP_temperature;BMP_pressure;BME280_temperature;BME280_humidity;BME280_pressure;Samples;Min_cycle;Max_cycle;Signal;HPM_P1;HPM_P2
2021/12/06 00:00:33;;;;;;;;;;;;;;;;;;1035952;28;3844;-70
2021/12/06 00:01:13;;;;;;;;;;;;;;;;;;1041671;28;3944;-69
2021/12/06 00:01:43;;;;;;;;;;;;;;;;;;1038907;28;4087;-70
2021/12/06 00:02:18;;;;;;;;;;;;;;;;;;1037331;28;3404;-69
2021/12/06 00:02:50;;;;;;;;;;;;;;;;;;1039298;28;4061;-69
2021/12/06 00:03:23;;;;;;;;;;;;;;;;;;1039024;28;2558;-69
2021/12/06 00:03:57;;;;;;;;;;;;;;;;;;1037699;28;4155;-70
2021/12/06 00:04:30;;;;;;;;;;;;;;;;;;1040972;28;3621;-69
2021/12/06 00:05:01;;;;;;;;;;;;;;;;;;1040227;28;3998;-69
2021/12/06 00:05:31;;;;;;;;;;;;;;;;;;1040316;28;2853;-70
2021/12/06 00:06:02;;;;;;;;;;;;;;;;;;1036696;28;3975;-70
2021/12/06 00:06:34;;;;;;;;;;;;;;;;;;1036554;28;4052;-71
2021/12/06 00:07:06;;;;;;;;;;;;;;;;;;1036436;28;1918;-71
2021/12/06 00:07:38;;;;;;;;;;;;;;;;;;1035223;28;4196;-69
2021/12/06 00:08:08;;;;;;;;;;;;;;;;;;1042003;28;1812;-70
2021/12/06 00:08:38;;;;;;;;;;;;;;;;;;1041029;28;4043;-70
2021/12/06 00:09:10;;;;;;;;;;;;;;;;;;1041624;28;1886;-69
2021/12/06 00:09:41;;;;;;;;;;;;;;;;;;1041197;28;3786;-70
2021/12/06 00:10:11;;;;;;;;;;;;;;;;;;1040387;28;2240;-70
2021/12/06 00:10:42;;;;;;;;;;;;;;;;;;1041771;28;4046;-70
2021/12/06 00:11:14;;;;;;;;;;;;;;;;;;1038920;28;3185;-71
2021/12/06 00:11:44;;;;;;;;;;;;;;;;;;1041547;28;3950;-69
2021/12/06 00:12:15;;;;;;;;;;;;;;;;;;1041531;28;1666;-69
2021/12/06 00:12:46;;;;;;;;;;;;;;;;;;1040856;28;3997;-70
2021/12/06 00:13:20;;;;;;;;;;;;;;;;;;1040597;28;2869;-69
2021/12/06 00:13:50;;;;;;;;;;;;;;;;;;1041363;28;4072;-69
2021/12/06 00:14:27;;;;;;;;;;;;;;;;;;1041384;28;1637;-70
2021/12/06 00:14:57;;;;;;;;;;;;;;;;;;1041060;28;4196;-70
2021/12/06 00:15:31;;;;;;;;;;;;;;;;;;1039174;28;3711;-70
2021/12/06 00:16:06;;;;;;;;;;;;;;;;;;1040927;28;3692;-70
2021/12/06 00:16:37;;;;;;;;;;;;;;;;;;1041533;28;4108;-69
2021/12/06 00:17:09;;;;;;;;;;;;;;;;;;1041125;28;1846;-70
2021/12/06 00:17:40;;;;;;;;;;;;;;;;;;1037406;28;4058;-70
2021/12/06 00:18:10;;;;;;;;;;;;;;;;;;1040463;28;2752;-70
2021/12/06 00:18:41;;;;;;;;;;;;;;;;;;1041398;28;4044;-71
2021/12/06 00:19:11;;;;;;;;;;;;;;;;;;1039268;28;3767;-69
2021/12/06 00:19:43;;;;;;;;;;;;;;;;;;1040781;28;4003;-70
2021/12/06 00:20:14;;;;;;;;;;;;;;;;;;1041759;28;1666;-70
2021/12/06 00:20:44;;;;;;;;;;;;;;;;;;1036330;28;3902;-70
2021/12/06 00:21:15;;;;;;;;;;;;;;;;;;1037330;28;1756;-70
2021/12/06 00:21:45;;;;;;;;;;;;;;;;;;1036619;28;5063;-70
2021/12/06 00:22:22;;;;;;;;;;;;;;;;;;1037735;28;1653;-71
2021/12/06 00:22:53;;;;;;;;;;;;;;;;;;1040655;28;4364;-70
2021/12/06 00:23:23;;;;;;;;;;;;;;;;;;1039140;28;3092;-70
2021/12/06 00:23:53;;;;;;;;;;;;;;;;;;1040147;28;3878;-70
2021/12/06 00:24:24;;;;;;;;;;;;;;;;;;1042360;28;1545;-69
2021/12/06 00:24:55;;;;;;;;;;;;;;;;;;1040970;28;4038;-70
2021/12/06 00:25:26;;;;;;;;;;;;;;;;;;1039688;28;2708;-69
2021/12/06 00:25:56;;;;;;;;;;;;;;;;;;1041697;28;3964;-69
2021/12/06 00:26:27;;;;;;;;;;;;;;;;;;1041858;28;1671;-69
2021/12/06 00:26:57;;;;;;;;;;;;;;;;;;1040692;28;4577;-69
2021/12/06 00:27:27;;;;;;;;;;;;;;;;;;1041448;28;1665;-70
2021/12/06 00:27:58;;;;;;;;;;;;;;;;;;1041574;28;4079;-70
2021/12/06 00:28:28;;;;;;;;;;;;;;;;;;1038580;28;1981;-70
2021/12/06 00:28:58;;;;;;;;;;;;;;;;;;1041376;28;3871;-71
2021/12/06 00:29:29;;;;;;;;;;;;;;;;;;1037402;28;3202;-70
2021/12/06 00:29:59;;;;;;;;;;;;;;;;;;1040713;28;3910;-70
2021/12/06 00:30:29;;;;;;;;;;;;;;;;;;1036913;28;3041;-69
2021/12/06 00:31:00;;;;;;;;;;;;;;;;;;1039099;28;4029;-69
2021/12/06 00:31:33;;;;;;;;;;;;;;;;;;1041834;28;2894;-70
2021/12/06 00:32:04;;;;;;;;;;;;;;;;;;1040475;28;3838;-70
2021/12/06 00:32:34;;;;;;;;;;;;;;;;;;1040869;28;4124;-69
2021/12/06 00:33:04;;;;;;;;;;;;;;;;;;1041055;28;2723;-70
2021/12/06 00:33:35;;;;;;;;;;;;;;;;;;1041626;28;4137;-70
2021/12/06 00:34:09;;;;;;;;;;;;;;;;;;1039767;28;3486;-70
2021/12/06 00:34:41;;;;;;;;;;;;;;;;;;1040476;28;3961;-69
2021/12/06 00:35:17;;;;;;;;;;;;;;;;;;1036559;28;1679;-69
2021/12/06 00:35:48;;;;;;;;;;;;;;;;;;1037369;28;3894;-69
2021/12/06 00:36:26;;;;;;;;;;;;;;;;;;1034993;28;2643;-69
2021/12/06 00:37:18;;;;;;;;;;;;;;;;;;1038810;28;3772;-70
2021/12/06 00:37:58;;;;;;;;;;;;;;;;;;1041270;28;4125;-69
2021/12/06 00:38:28;;;;;;;;;;;;;;;;;;1041240;28;1846;-70
2021/12/06 00:39:00;;;;;;;;;;;;;;;;;;1041241;28;4099;-70
2021/12/06 00:39:30;;;;;;;;;;;;;;;;;;1041825;28;1929;-70
2021/12/06 00:40:06;;;;;;;;;;;;;;;;;;1039561;28;3817;-69
2021/12/06 00:40:39;;;;;;;;;;;;;;;;;;1039313;28;3807;-70
2021/12/06 00:41:09;;;;;;;;;;;;;;;;;;1041426;28;2542;-69
2021/12/06 00:41:40;;;;;;;;;;;;;;;;;;1037169;28;3927;-69
2021/12/06 00:42:10;;;;;;;;;;;;;;;;;;1040618;28;2826;-70
2021/12/06 00:42:40;;;;;;;;;;;;;;;;;;1040825;28;3875;-69
2021/12/06 00:43:11;;;;;;;;;;;;;;;;;;1037614;28;1999;-70
2021/12/06 00:43:41;;;;;;;;;;;;;;;;;;1033805;28;4139;-70
2021/12/06 00:44:12;;;;;;;;;;;;;;;;;;1031369;28;3313;-70
2021/12/06 00:44:42;;;;;;;;;;;;;;;;;;1033594;28;4385;-69
2021/12/06 00:45:12;;;;;;;;;;;;;;;;;;1034573;28;3102;-69
2021/12/06 00:45:43;;;;;;;;;;;;;;;;;;1036049;28;4078;-69
2021/12/06 00:46:13;;;;;;;;;;;;;;;;;;1042453;28;1687;-69
2021/12/06 00:46:43;;;;;;;;;;;;;;;;;;1041101;28;3943;-71
2021/12/06 00:47:14;;;;;;;;;;;;;;;;;;1040495;28;3011;-70
2021/12/06 00:47:44;;;;;;;;;;;;;;;;;;1039412;28;3915;-69
2021/12/06 00:48:14;;;;;;;;;;;;;;;;;;1042072;28;1968;-70
2021/12/06 00:48:45;;;;;;;;;;;;;;;;;;1039892;28;3904;-69
2021/12/06 00:49:15;;;;;;;;;;;;;;;;;;1040661;28;2408;-70
2021/12/06 00:49:47;;;;;;;;;;;;;;;;;;1040163;28;4100;-69
2021/12/06 00:50:18;;;;;;;;;;;;;;;;;;1039701;28;2747;-71
2021/12/06 00:50:48;;;;;;;;;;;;;;;;;;1041082;28;4069;-70
2021/12/06 00:51:18;;;;;;;;;;;;;;;;;;1042093;28;1890;-70
2021/12/06 00:51:48;;;;;;;;;;;;;;;;;;1041186;28;4254;-69
2021/12/06 00:52:19;;;;;;;;;;;;;;;;;;1040290;28;3032;-69
2021/12/06 00:52:49;;;;;;;;;;;;;;;;;;1040811;28;5002;-69
2021/12/06 00:53:20;;;;;;;;;;;;;;;;;;1041009;28;3184;-71
2021/12/06 00:53:50;;;;;;;;;;;;;;;;;;1040885;28;4066;-70
2021/12/06 00:54:21;;;;;;;;;;;;;;;;;;1040056;28;2517;-70
2021/12/06 00:54:51;;;;;;;;;;;;;;;;;;1040461;28;3828;-70
2021/12/06 00:55:22;;;;;;;;;;;;;;;;;;1042019;28;1323;-69
2021/12/06 00:55:52;;;;;;;;;;;;;;;;;;1040118;28;3890;-69
2021/12/06 00:56:23;;;;;;;;;;;;;;;;;;1041273;28;2231;-72
2021/12/06 00:56:53;;;;;;;;;;;;;;;;;;1041714;28;4016;-69
2021/12/06 00:57:23;;;;;;;;;;;;;;;;;;1039873;28;3035;-70
2021/12/06 00:57:54;;;;;;;;;;;;;;;;;;1041649;28;4091;-70
2021/12/06 00:58:25;;;;;;;;;;;;;;;;;;1041836;28;1411;-69
2021/12/06 00:58:55;;;;;;;;;;;;;;;;;;1041630;28;4263;-70
2021/12/06 00:59:25;;;;;;;;;;;;;;;;;;1041338;28;1857;-70
2021/12/06 00:59:56;;;;;;;;;;;;;;;;;;1039334;28;4040;-69
2021/12/06 01:00:35;;;;;;;;;;;;;;;;;;1031878;28;2919;-70
2021/12/06 01:01:06;;;;;;;;;;;;;;;;;;1037744;28;4162;-70
2021/12/06 01:01:36;;;;;;;;;;;;;;;;;;1036598;28;3908;-70
2021/12/06 01:02:07;;;;;;;;;;;;;;;;;;1036693;28;1825;-72
2021/12/06 01:02:38;;;;;;;;;;;;;;;;;;1038961;28;4062;-69
2021/12/06 01:03:10;;;;;;;;;;;;;;;;;;1041700;28;1328;-70
2021/12/06 01:03:41;;;;;;;;;;;;;;;;;;1040819;28;4342;-71
2021/12/06 01:04:11;;;;;;;;;;;;;;;;;;1038564;28;3311;-70
2021/12/06 01:04:43;;;;;;;;;;;;;;;;;;1040645;28;4118;-70
2021/12/06 01:05:13;;;;;;;;;;;;;;;;;;1037271;28;1866;-70
2021/12/06 01:05:44;;;;;;;;;;;;;;;;;;1030721;28;4144;-69
2021/12/06 01:06:14;;;;;;;;;;;;;;;;;;1035013;28;2976;-70
2021/12/06 01:06:45;;;;;;;;;;;;;;;;;;1035453;28;4076;-71
2021/12/06 01:07:15;;;;;;;;;;;;;;;;;;1037874;28;2640;-70
2021/12/06 01:07:45;;;;;;;;;;;;;;;;;;1039355;28;4042;-69
2021/12/06 01:08:16;;;;;;;;;;;;;;;;;;1039847;28;2968;-69
2021/12/06 01:08:46;;;;;;;;;;;;;;;;;;1040084;28;4045;-70
2021/12/06 01:09:17;;;;;;;;;;;;;;;;;;1041242;28;1614;-70
2021/12/06 01:09:47;;;;;;;;;;;;;;;;;;1039876;28;4050;-70
2021/12/06 01:10:17;;;;;;;;;;;;;;;;;;1041819;28;3143;-70
2021/12/06 01:10:48;;;;;;;;;;;;;;;;;;1036937;28;3906;-70
2021/12/06 01:11:19;;;;;;;;;;;;;;;;;;1039727;28;1747;-69
2021/12/06 01:11:50;;;;;;;;;;;;;;;;;;1040492;28;4057;-71
2021/12/06 01:12:20;;;;;;;;;;;;;;;;;;1042567;28;1650;-70
2021/12/06 01:12:50;;;;;;;;;;;;;;;;;;1040710;28;3796;-71
2021/12/06 01:13:20;;;;;;;;;;;;;;;;;;1041562;28;1519;-69
2021/12/06 01:13:51;;;;;;;;;;;;;;;;;;1041692;28;4091;-71
2021/12/06 01:14:21;;;;;;;;;;;;;;;;;;1039746;28;3177;-69
2021/12/06 01:14:51;;;;;;;;;;;;;;;;;;1041081;28;4031;-69
2021/12/06 01:15:22;;;;;;;;;;;;;;;;;;1039064;28;3208;-70
2021/12/06 01:15:52;;;;;;;;;;;;;;;;;;1038462;28;4251;-70
2021/12/06 01:16:22;;;;;;;;;;;;;;;;;;1041196;28;1659;-69
2021/12/06 01:16:53;;;;;;;;;;;;;;;;;;1041342;28;4013;-70
2021/12/06 01:17:23;;;;;;;;;;;;;;;;;;1037314;28;1822;-69
2021/12/06 01:17:54;;;;;;;;;;;;;;;;;;1037586;28;4018;-70
2021/12/06 01:18:25;;;;;;;;;;;;;;;;;;1035608;28;2809;-71
2021/12/06 01:18:55;;;;;;;;;;;;;;;;;;1034378;28;4052;-70
2021/12/06 01:19:29;;;;;;;;;;;;;;;;;;1037876;28;3407;-70
2021/12/06 01:19:59;;;;;;;;;;;;;;;;;;1041372;28;4022;-71
2021/12/06 01:20:31;;;;;;;;;;;;;;;;;;1041630;28;1771;-70
2021/12/06 01:21:15;;;;;;;;;;;;;;;;;;1041284;28;4151;-70
2021/12/06 01:21:53;;;;;;;;;;;;;;;;;;1040908;28;3897;-69
2021/12/06 01:22:33;;;;;;;;;;;;;;;;;;1041831;28;2024;-70
2021/12/06 01:23:06;;;;;;;;;;;;;;;;;;1039987;28;4017;-70
2021/12/06 01:23:57;;;;;;;;;;;;;;;;;;1040562;28;3849;-69
2021/12/06 01:24:31;;;;;;;;;;;;;;;;;;1041467;28;1896;-70
2021/12/06 01:25:06;;;;;;;;;;;;;;;;;;1040136;28;3939;-70
2021/12/06 01:25:51;;;;;;;;;;;;;;;;;;1041026;28;4230;-69
2021/12/06 01:26:44;;;;;;;;;;;;;;;;;;1040083;28;3160;-69
2021/12/06 01:31:38;;;;;;;;;;;;;;;;;;1041848;28;1673;-70
2021/12/06 01:39:27;;;;;;;;;;;;;;;;;;1041619;28;1734;-70
2021/12/06 01:39:58;;;;;;;;;;;;;;;;;;1039273;28;3958;-70
2021/12/06 01:40:28;;;;;;;;;;;;;;;;;;1036289;28;3199;-71
2021/12/06 01:40:59;;;;;;;;;;;;;;;;;;1034568;28;4038;-71
2021/12/06 01:41:29;;;;;;;;;;;;;;;;;;1037363;28;1848;-69
2021/12/06 01:42:01;;;;;;;;;;;;;;;;;;1035418;28;4015;-69
2021/12/06 01:42:31;;;;;;;;;;;;;;;;;;1041786;28;1665;-70
2021/12/06 01:43:05;;;;;;;;;;;;;;;;;;1040805;28;3912;-70
2021/12/06 01:43:35;;;;;;;;;;;;;;;;;;1035483;28;4151;-70
2021/12/06 01:44:23;;;;;;;;;;;;;;;;;;1034683;28;2099;-69
2021/12/06 01:44:54;;;;;;;;;;;;;;;;;;1036421;28;4099;-70
2021/12/06 01:45:24;;;;;;;;;;;;;;;;;;1035980;28;3127;-69
2021/12/06 01:45:55;;;;;;;;;;;;;;;;;;1039530;28;4026;-69
2021/12/06 01:46:25;;;;;;;;;;;;;;;;;;1039457;28;3105;-69
2021/12/06 01:46:58;;;;;;;;;;;;;;;;;;1041616;28;4022;-69
2021/12/06 01:47:29;;;;;;;;;;;;;;;;;;1040735;28;1743;-71
2021/12/06 01:48:00;;;;;;;;;;;;;;;;;;1041123;28;3825;-70
2021/12/06 01:48:30;;;;;;;;;;;;;;;;;;1040412;28;1830;-69
2021/12/06 01:49:00;;;;;;;;;;;;;;;;;;1040966;28;4030;-70
2021/12/06 01:49:33;;;;;;;;;;;;;;;;;;1039419;28;3164;-70
2021/12/06 01:50:12;;;;;;;;;;;;;;;;;;1039347;28;3770;-70
2021/12/06 01:50:42;;;;;;;;;;;;;;;;;;1039477;28;3953;-69
2021/12/06 01:51:13;;;;;;;;;;;;;;;;;;1041663;28;1643;-70
2021/12/06 01:51:44;;;;;;;;;;;;;;;;;;1038251;28;4302;-71
2021/12/06 01:52:16;;;;;;;;;;;;;;;;;;1039492;28;2662;-70
2021/12/06 01:52:48;;;;;;;;;;;;;;;;;;1038750;28;3919;-69
2021/12/06 01:53:18;;;;;;;;;;;;;;;;;;1039481;28;2507;-69
2021/12/06 01:53:48;;;;;;;;;;;;;;;;;;1040261;28;3890;-70
2021/12/06 01:54:19;;;;;;;;;;;;;;;;;;1041741;28;1361;-71
2021/12/06 01:54:50;;;;;;;;;;;;;;;;;;1040217;28;3977;-69
2021/12/06 01:55:22;;;;;;;;;;;;;;;;;;1036224;28;2503;-70
2021/12/06 01:55:52;;;;;;;;;;;;;;;;;;1035135;28;4055;-69
2021/12/06 01:56:22;;;;;;;;;;;;;;;;;;1035282;28;3134;-70
2021/12/06 01:56:53;;;;;;;;;;;;;;;;;;1034086;28;4951;-69
2021/12/06 01:57:24;;;;;;;;;;;;;;;;;;1041184;28;1605;-69
2021/12/06 01:57:55;;;;;;;;;;;;;;;;;;1041059;28;3903;-71
2021/12/06 01:58:25;;;;;;;;;;;;;;;;;;1041126;28;3100;-69
2021/12/06 01:58:56;;;;;;;;;;;;;;;;;;1039373;28;3882;-70
2021/12/06 01:59:26;;;;;;;;;;;;;;;;;;1040964;28;2021;-71
2021/12/06 01:59:57;;;;;;;;;;;;;;;;;;1040385;28;3841;-69
2021/12/06 02:00:27;;;;;;;;;;;;;;;;;;1036197;28;2519;-69
2021/12/06 02:00:57;;;;;;;;;;;;;;;;;;1040939;28;4015;-71
2021/12/06 02:01:27;;;;;;;;;;;;;;;;;;1037585;28;1611;-70
2021/12/06 02:01:58;;;;;;;;;;;;;;;;;;1036489;28;4076;-69
2021/12/06 02:02:29;;;;;;;;;;;;;;;;;;1036946;28;1095;-70
2021/12/06 02:02:59;;;;;;;;;;;;;;;;;;1034578;28;4031;-69
2021/12/06 02:03:29;;;;;;;;;;;;;;;;;;1040972;28;2048;-70
2021/12/06 02:04:00;;;;;;;;;;;;;;;;;;1040432;28;4057;-69
2021/12/06 02:04:32;;;;;;;;;;;;;;;;;;1041309;28;1959;-70
2021/12/06 02:05:03;;;;;;;;;;;;;;;;;;1041362;28;3943;-70
2021/12/06 02:05:34;;;;;;;;;;;;;;;;;;1039189;28;6381;-70
2021/12/06 02:06:04;;;;;;;;;;;;;;;;;;1042198;28;1925;-69
2021/12/06 02:06:36;;;;;;;;;;;;;;;;;;1040010;28;3835;-69
2021/12/06 02:07:12;;;;;;;;;;;;;;;;;;1039382;28;3040;-69
2021/12/06 02:07:43;;;;;;;;;;;;;;;;;;1037812;28;4023;-69
2021/12/06 02:08:13;;;;;;;;;;;;;;;;;;1037458;28;1382;-70
2021/12/06 02:08:43;;;;;;;;;;;;;;;;;;1036592;28;4023;-69
2021/12/06 02:09:17;;;;;;;;;;;;;;;;;;1035555;28;2302;-70
2021/12/06 02:09:47;;;;;;;;;;;;;;;;;;1036617;28;4034;-70
2021/12/06 02:10:18;;;;;;;;;;;;;;;;;;1040966;28;1855;-69
2021/12/06 02:10:48;;;;;;;;;;;;;;;;;;1040849;28;4018;-69
2021/12/06 02:11:19;;;;;;;;;;;;;;;;;;1040646;28;3387;-70
2021/12/06 02:11:51;;;;;;;;;;;;;;;;;;1035965;28;3926;-70
2021/12/06 02:12:22;;;;;;;;;;;;;;;;;;1037227;28;1809;-70
2021/12/06 02:12:54;;;;;;;;;;;;;;;;;;1035319;28;4066;-70
2021/12/06 02:13:24;;;;;;;;;;;;;;;;;;1037493;28;1654;-70
2021/12/06 02:14:16;;;;;;;;;;;;;;;;;;1040399;28;4019;-70
2021/12/06 02:15:41;;;;;;;;;;;;;;;;;;1039746;28;2144;-70
2021/12/06 02:16:08;;;;;;;;;;;;;;;;;;1038053;28;3720;-69
2021/12/06 02:16:54;;;;;;;;;;;;;;;;;;1035712;28;4103;-69
2021/12/06 02:17:31;;;;;;;;;;;;;;;;;;1037513;28;1678;-69
2021/12/06 02:18:10;;;;;;;;;;;;;;;;;;1035544;28;3723;-70
2021/12/06 02:18:46;;;;;;;;;;;;;;;;;;1037967;28;4061;-69
2021/12/06 02:19:19;;;;;;;;;;;;;;;;;;1041467;28;2438;-70
2021/12/06 02:19:53;;;;;;;;;;;;;;;;;;1039949;28;4019;-70
2021/12/06 02:20:27;;;;;;;;;;;;;;;;;;1039823;28;1902;-70
2021/12/06 02:21:08;;;;;;;;;;;;;;;;;;1040165;28;4050;-70
2021/12/06 02:21:41;;;;;;;;;;;;;;;;;;1040454;28;4438;-69
2021/12/06 02:22:14;;;;;;;;;;;;;;;;;;1041888;28;1657;-70
2021/12/06 02:22:46;;;;;;;;;;;;;;;;;;1039407;28;4132;-70
2021/12/06 02:23:17;;;;;;;;;;;;;;;;;;1041100;28;2289;-69
2021/12/06 02:23:48;;;;;;;;;;;;;;;;;;1038453;28;4275;-69
2021/12/06 02:24:18;;;;;;;;;;;;;;;;;;1037489;28;2673;-70
2021/12/06 02:24:49;;;;;;;;;;;;;;;;;;1036775;28;3911;-70
2021/12/06 02:25:20;;;;;;;;;;;;;;;;;;1035626;28;2710;-70
2021/12/06 02:25:50;;;;;;;;;;;;;;;;;;1036174;28;4121;-68
2021/12/06 02:26:21;;;;;;;;;;;;;;;;;;1034942;28;3134;-70
2021/12/06 02:26:53;;;;;;;;;;;;;;;;;;1039766;28;4047;-69
2021/12/06 02:27:25;;;;;;;;;;;;;;;;;;1041451;28;2159;-69
2021/12/06 02:27:55;;;;;;;;;;;;;;;;;;1040561;28;4059;-70
2021/12/06 02:28:26;;;;;;;;;;;;;;;;;;1041234;28;1561;-71
2021/12/06 02:28:56;;;;;;;;;;;;;;;;;;1040342;28;4320;-70
2021/12/06 02:29:26;;;;;;;;;;;;;;;;;;1038382;28;2291;-70
2021/12/06 02:29:57;;;;;;;;;;;;;;;;;;1038931;28;4022;-69
2021/12/06 02:30:28;;;;;;;;;;;;;;;;;;1038757;28;2357;-69
2021/12/06 02:30:59;;;;;;;;;;;;;;;;;;1040662;28;4276;-69
2021/12/06 02:31:29;;;;;;;;;;;;;;;;;;1041124;28;1672;-71
2021/12/06 02:32:05;;;;;;;;;;;;;;;;;;1040163;28;4090;-70
2021/12/06 02:32:35;;;;;;;;;;;;;;;;;;1040409;28;4180;-71
2021/12/06 02:33:05;;;;;;;;;;;;;;;;;;1037466;28;3053;-70
2021/12/06 02:33:35;;;;;;;;;;;;;;;;;;1039196;28;3904;-69
2021/12/06 02:34:06;;;;;;;;;;;;;;;;;;1041512;28;1776;-71
2021/12/06 02:34:40;;;;;;;;;;;;;;;;;;1039871;28;4060;-70
2021/12/06 02:35:14;;;;;;;;;;;;;;;;;;1041790;28;1666;-69
2021/12/06 02:35:44;;;;;;;;;;;;;;;;;;1039698;28;4047;-70
2021/12/06 02:36:18;;;;;;;;;;;;;;;;;;1040373;28;3173;-69
2021/12/06 02:36:49;;;;;;;;;;;;;;;;;;1039997;28;4092;-70
2021/12/06 02:37:21;;;;;;;;;;;;;;;;;;1041873;28;1652;-70
2021/12/06 02:37:52;;;;;;;;;;;;;;;;;;1040539;28;4130;-69
2021/12/06 02:38:23;;;;;;;;;;;;;;;;;;1040890;28;2615;-70
2021/12/06 02:38:53;;;;;;;;;;;;;;;;;;1040101;28;4078;-69
2021/12/06 02:39:25;;;;;;;;;;;;;;;;;;1039990;28;1702;-70
2021/12/06 02:39:56;;;;;;;;;;;;;;;;;;1039813;28;4019;-70
2021/12/06 02:40:31;;;;;;;;;;;;;;;;;;1039526;28;3091;-70
2021/12/06 02:41:02;;;;;;;;;;;;;;;;;;1041058;28;3800;-69
2021/12/06 02:41:33;;;;;;;;;;;;;;;;;;1035324;28;4053;-70
2021/12/06 02:42:05;;;;;;;;;;;;;;;;;;1035775;28;3067;-70
2021/12/06 02:42:36;;;;;;;;;;;;;;;;;;1033991;28;4387;-70
2021/12/06 02:43:08;;;;;;;;;;;;;;;;;;1037824;28;1682;-70
2021/12/06 02:43:39;;;;;;;;;;;;;;;;;;1040105;28;4044;-70
2021/12/06 02:44:09;;;;;;;;;;;;;;;;;;1040811;28;3108;-70
2021/12/06 02:44:39;;;;;;;;;;;;;;;;;;1040317;28;3905;-70
2021/12/06 02:45:12;;;;;;;;;;;;;;;;;;1040211;28;2661;-69
2021/12/06 02:45:42;;;;;;;;;;;;;;;;;;1040893;28;3890;-69
2021/12/06 02:46:13;;;;;;;;;;;;;;;;;;1038243;28;3682;-70
2021/12/06 02:46:43;;;;;;;;;;;;;;;;;;1039779;28;4069;-70
2021/12/06 02:47:15;;;;;;;;;;;;;;;;;;1041497;28;1971;-70
2021/12/06 02:47:52;;;;;;;;;;;;;;;;;;1039762;28;4169;-70
2021/12/06 02:48:22;;;;;;;;;;;;;;;;;;1039111;28;2121;-69
2021/12/06 02:48:52;;;;;;;;;;;;;;;;;;1040762;28;3880;-70
2021/12/06 02:49:24;;;;;;;;;;;;;;;;;;1039838;28;2184;-70
2021/12/06 02:49:54;;;;;;;;;;;;;;;;;;1039978;28;4068;-70
2021/12/06 02:50:26;;;;;;;;;;;;;;;;;;1040085;28;3144;-69
2021/12/06 02:50:57;;;;;;;;;;;;;;;;;;1039841;28;4158;-69
2021/12/06 02:51:27;;;;;;;;;;;;;;;;;;1040133;28;3229;-70
2021/12/06 02:51:58;;;;;;;;;;;;;;;;;;1039720;28;4093;-70
2021/12/06 02:52:28;;;;;;;;;;;;;;;;;;1040572;28;1973;-69
2021/12/06 02:52:59;;;;;;;;;;;;;;;;;;1041270;28;4015;-71
2021/12/06 02:53:30;;;;;;;;;;;;;;;;;;1042100;28;1836;-69
2021/12/06 02:54:00;;;;;;;;;;;;;;;;;;1041198;28;3991;-70
2021/12/06 02:54:31;;;;;;;;;;;;;;;;;;1039895;28;1687;-70
2021/12/06 02:55:09;;;;;;;;;;;;;;;;;;1040051;28;3963;-70
2021/12/06 02:55:40;;;;;;;;;;;;;;;;;;1041754;28;3882;-70
2021/12/06 02:57:38;;;;;;;;;;;;;;;;;;1037213;28;4026;-69
2021/12/06 02:58:16;;;;;;;;;;;;;;;;;;1040964;28;3068;-70
2021/12/06 02:58:56;;;;;;;;;;;;;;;;;;1039148;28;4028;-70
2021/12/06 02:59:26;;;;;;;;;;;;;;;;;;1041503;28;1742;-70
2021/12/06 02:59:57;;;;;;;;;;;;;;;;;;1036430;28;3840;-70
2021/12/06 03:00:27;;;;;;;;;;;;;;;;;;1036738;28;2151;-70
2021/12/06 03:00:59;;;;;;;;;;;;;;;;;;1038649;28;3868;-70
2021/12/06 03:01:29;;;;;;;;;;;;;;;;;;1041166;28;1665;-70
2021/12/06 03:02:02;;;;;;;;;;;;;;;;;;1036529;28;3755;-71
2021/12/06 03:02:32;;;;;;;;;;;;;;;;;;1036430;28;3876;-70
2021/12/06 03:03:02;;;;;;;;;;;;;;;;;;1034299;28;3696;-70
2021/12/06 03:03:32;;;;;;;;;;;;;;;;;;1033803;28;4091;-71
2021/12/06 03:04:04;;;;;;;;;;;;;;;;;;1037618;28;1690;-70
2021/12/06 03:04:34;;;;;;;;;;;;;;;;;;1035799;28;4071;-70
2021/12/06 03:05:04;;;;;;;;;;;;;;;;;;1033557;28;3189;-70
2021/12/06 03:05:35;;;;;;;;;;;;;;;;;;1036268;28;3911;-70
2021/12/06 03:06:06;;;;;;;;;;;;;;;;;;1036203;28;2592;-70
2021/12/06 03:06:36;;;;;;;;;;;;;;;;;;1036957;28;4060;-70
2021/12/06 03:07:08;;;;;;;;;;;;;;;;;;1036859;28;1913;-69
2021/12/06 03:07:39;;;;;;;;;;;;;;;;;;1037293;28;4109;-70
2021/12/06 03:08:09;;;;;;;;;;;;;;;;;;1037367;28;1723;-70
2021/12/06 03:08:41;;;;;;;;;;;;;;;;;;1034814;28;4139;-71
2021/12/06 03:09:16;;;;;;;;;;;;;;;;;;1037287;28;2248;-69
2021/12/06 03:09:51;;;;;;;;;;;;;;;;;;1035877;28;3866;-70
2021/12/06 03:10:21;;;;;;;;;;;;;;;;;;1035946;28;1569;-69
2021/12/06 03:10:51;;;;;;;;;;;;;;;;;;1035045;28;4040;-70
2021/12/06 03:11:23;;;;;;;;;;;;;;;;;;1037076;28;2901;-70
2021/12/06 03:11:57;;;;;;;;;;;;;;;;;;1032762;28;3854;-71
2021/12/06 03:12:27;;;;;;;;;;;;;;;;;;1036596;28;1655;-70
2021/12/06 03:12:58;;;;;;;;;;;;;;;;;;1034695;28;4145;-70
2021/12/06 03:13:28;;;;;;;;;;;;;;;;;;1036437;28;3490;-70
2021/12/06 03:13:58;;;;;;;;;;;;;;;;;;1036503;28;3885;-69
2021/12/06 03:14:30;;;;;;;;;;;;;;;;;;1037287;28;2728;-70
2021/12/06 03:15:02;;;;;;;;;;;;;;;;;;1036588;28;3865;-69
2021/12/06 03:15:32;;;;;;;;;;;;;;;;;;1036800;28;1935;-70
2021/12/06 03:16:03;;;;;;;;;;;;;;;;;;1037347;28;3742;-70
2021/12/06 03:16:33;;;;;;;;;;;;;;;;;;1035904;28;4214;-70
2021/12/06 03:17:05;;;;;;;;;;;;;;;;;;1036380;28;1457;-70
2021/12/06 03:17:35;;;;;;;;;;;;;;;;;;1036560;28;4145;-69
2021/12/06 03:18:06;;;;;;;;;;;;;;;;;;1034608;28;1981;-69
2021/12/06 03:18:36;;;;;;;;;;;;;;;;;;1036507;28;4038;-70
2021/12/06 03:19:07;;;;;;;;;;;;;;;;;;1037469;28;1927;-70
2021/12/06 03:19:38;;;;;;;;;;;;;;;;;;1035879;28;3929;-69
2021/12/06 03:20:12;;;;;;;;;;;;;;;;;;1036428;28;2172;-70
2021/12/06 03:20:43;;;;;;;;;;;;;;;;;;1036421;28;4104;-69
2021/12/06 03:21:14;;;;;;;;;;;;;;;;;;1035685;28;2703;-70
2021/12/06 03:21:45;;;;;;;;;;;;;;;;;;1032359;28;4048;-70
2021/12/06 03:22:16;;;;;;;;;;;;;;;;;;1036419;28;3203;-70
2021/12/06 03:22:46;;;;;;;;;;;;;;;;;;1034775;28;3794;-70
2021/12/06 03:23:17;;;;;;;;;;;;;;;;;;1036606;28;1873;-70
2021/12/06 03:23:47;;;;;;;;;;;;;;;;;;1034411;28;3913;-69
2021/12/06 03:24:17;;;;;;;;;;;;;;;;;;1037798;28;1676;-70
2021/12/06 03:24:48;;;;;;;;;;;;;;;;;;1037336;28;4170;-70
2021/12/06 03:25:18;;;;;;;;;;;;;;;;;;1035189;28;3171;-70
2021/12/06 03:25:49;;;;;;;;;;;;;;;;;;1036879;28;3989;-70
2021/12/06 03:26:19;;;;;;;;;;;;;;;;;;1036313;28;2562;-69
2021/12/06 03:26:49;;;;;;;;;;;;;;;;;;1036056;28;3908;-70
2021/12/06 03:27:20;;;;;;;;;;;;;;;;;;1037407;28;2879;-70
2021/12/06 03:27:51;;;;;;;;;;;;;;;;;;1035853;28;3794;-70
2021/12/06 03:28:21;;;;;;;;;;;;;;;;;;1036230;28;2384;-70
2021/12/06 03:28:52;;;;;;;;;;;;;;;;;;1036959;28;3947;-69
2021/12/06 03:29:23;;;;;;;;;;;;;;;;;;1037586;28;1940;-69
2021/12/06 03:29:53;;;;;;;;;;;;;;;;;;1034854;28;4343;-69
2021/12/06 03:30:23;;;;;;;;;;;;;;;;;;1035075;28;2329;-70
2021/12/06 03:30:53;;;;;;;;;;;;;;;;;;1034808;28;4100;-69
2021/12/06 03:31:24;;;;;;;;;;;;;;;;;;1035886;28;2596;-70
2021/12/06 03:31:54;;;;;;;;;;;;;;;;;;1037423;28;3909;-70
2021/12/06 03:32:25;;;;;;;;;;;;;;;;;;1036005;28;1571;-70
2021/12/06 03:32:55;;;;;;;;;;;;;;;;;;1037008;28;4014;-70
2021/12/06 03:33:25;;;;;;;;;;;;;;;;;;1036598;28;2180;-70
2021/12/06 03:33:56;;;;;;;;;;;;;;;;;;1037164;28;4034;-69
2021/12/06 03:34:26;;;;;;;;;;;;;;;;;;1037231;28;3135;-70
2021/12/06 03:34:57;;;;;;;;;;;;;;;;;;1038239;28;3821;-71
2021/12/06 03:35:27;;;;;;;;;;;;;;;;;;1037098;28;2494;-69
2021/12/06 03:35:58;;;;;;;;;;;;;;;;;;1036537;28;4034;-70
2021/12/06 03:36:29;;;;;;;;;;;;;;;;;;1037583;28;2091;-69
2021/12/06 03:37:01;;;;;;;;;;;;;;;;;;1037807;28;3999;-70
2021/12/06 03:37:32;;;;;;;;;;;;;;;;;;1038069;28;1748;-70
2021/12/06 03:38:02;;;;;;;;;;;;;;;;;;1035765;28;3729;-70
2021/12/06 03:38:33;;;;;;;;;;;;;;;;;;1037676;28;3883;-70
2021/12/06 03:39:06;;;;;;;;;;;;;;;;;;1036609;28;1839;-70
2021/12/06 03:39:41;;;;;;;;;;;;;;;;;;1037198;28;4045;-70
2021/12/06 03:40:11;;;;;;;;;;;;;;;;;;1037382;28;1811;-69
2021/12/06 03:40:42;;;;;;;;;;;;;;;;;;1035576;28;3822;-70
2021/12/06 03:41:13;;;;;;;;;;;;;;;;;;1037414;28;1569;-69
2021/12/06 03:41:43;;;;;;;;;;;;;;;;;;1035100;28;4154;-70
2021/12/06 03:42:14;;;;;;;;;;;;;;;;;;1037083;28;3182;-69
2021/12/06 03:42:45;;;;;;;;;;;;;;;;;;1036292;28;3860;-70
2021/12/06 03:43:15;;;;;;;;;;;;;;;;;;1037965;28;2118;-70
2021/12/06 03:43:45;;;;;;;;;;;;;;;;;;1036424;28;4023;-69
2021/12/06 03:44:16;;;;;;;;;;;;;;;;;;1038101;28;1858;-70
2021/12/06 03:44:47;;;;;;;;;;;;;;;;;;1036115;28;4049;-70
2021/12/06 03:45:17;;;;;;;;;;;;;;;;;;1044566;28;3037;-71
2021/12/06 03:45:48;;;;;;;;;;;;;;;;;;1044718;28;4092;-69
2021/12/06 03:46:19;;;;;;;;;;;;;;;;;;1046479;28;1577;-70
2021/12/06 03:46:51;;;;;;;;;;;;;;;;;;1044832;28;3840;-69
2021/12/06 03:47:23;;;;;;;;;;;;;;;;;;1037108;28;1784;-70
2021/12/06 03:47:53;;;;;;;;;;;;;;;;;;1036728;28;3888;-70
2021/12/06 03:48:24;;;;;;;;;;;;;;;;;;1037820;28;1900;-69
2021/12/06 03:48:54;;;;;;;;;;;;;;;;;;1033492;28;3978;-69
2021/12/06 03:49:24;;;;;;;;;;;;;;;;;;1037349;28;2047;-70
2021/12/06 03:49:55;;;;;;;;;;;;;;;;;;1036371;28;3848;-70
2021/12/06 03:50:25;;;;;;;;;;;;;;;;;;1034915;28;3211;-70
2021/12/06 03:50:55;;;;;;;;;;;;;;;;;;1037147;28;3833;-70
2021/12/06 03:51:25;;;;;;;;;;;;;;;;;;1037618;28;1525;-70
2021/12/06 03:51:56;;;;;;;;;;;;;;;;;;1036579;28;3935;-70
2021/12/06 03:52:27;;;;;;;;;;;;;;;;;;1039063;28;1537;-70
2021/12/06 03:52:57;;;;;;;;;;;;;;;;;;1037825;28;3878;-69
2021/12/06 03:53:27;;;;;;;;;;;;;;;;;;1036473;28;3149;-71
2021/12/06 03:53:58;;;;;;;;;;;;;;;;;;1036493;28;4031;-70